Sandtown, Arkansas
Current Conditions -  °F | °C
As of 7:39 PM on Friday 21 Nov 2014 (Local Time) from KRUE Reporting Station
Overcast Overcast  
Wind Chill: 45°   Ceiling: 4700
Heat Index: 47°   Visibility: 7mi
Dew Point: 45°   Wind: 5mph
Humidity: 93%   Direction: NA
Pressure: 30.23"   Gusts: NA
Location:  35.227°N, 92.6879°W
Report Text: KRUE 220139Z AUTO VRB04KT 7SM FEW006 OVC047 08/07 A3023 RMK AO2 T00830072
Loading
Personal Weather Stations






























Interactive Weather Map New forecast layout! Learn more

10-Day Weather Forecast

Advertisements
Track Severe Weather on mobile